Strona główna
METAR-TAF:

METAR-TAF

Lotnisko :

Turyn, Włochy

Szerokość geograficzna: 45-05-20N, Długość geograficzna: 007-36-20E, wysokość: 288 m

Aktualna obserwacja pogody

Raport powstał 34 minut temu, godzina 11:50 UTC
Wiatr 3 kt z kierunków zmiennych
Temperatura 15°C
Wilgotność 41%
Ciśnienie 1014 hPa
Widzialność 10 km lub więcej
Brak chmur poniżej 1500 m i brak chmur cumulonimbus

METAR: LIMA 031150Z VRB03KT CAVOK 15/02 Q1014

czas: 14:24 (12:24 UTC)


TAF: brakujący

Obserwacja i prognoza pogody dla ponad 4000 lotnisk (raport METAR i TAF).

Dostępne stacje oznaczono żółtymi i czerwonymi punktami na mapie.

Najedź kursorem aby zobaczyć nazwę stacji.

Kliknij aby zobaczyć obserwacje i prognozy pogody.

Aby zmienić mapę: kliknij na zielony przycisk z czarnym krzyżykiem, aby powiększyć; na zielony przycisk z myślnikiem, aby pomniejszyć; na zielone strzałki, aby przejść do map sąsiednich.


METAR-TAF: